Greifswald — 3FEC8 — position and weather

sailwx.info

Track history (hours):
 
Tides and Currents Weather Stations Pressure Air Temp Water Temp Dewpoint Dewpoint Depression Visibility Wind Speed Wind Dir Waves Ship Positions

Greifswald

Last reported at 2014-Aug-19 10:28 UTC. Time now 2014-Aug-22 02:03 UTC.
Position N 44°07' E 033°55'.

Length 191 m; draft 6.6 m.

Type: Ship. MMSI: 370492000.

Date/timePositionNaut miles runAvg speedWind from/ knotsBaromVisibWave heightAir tempDewpointWater temp
2014-Aug-19 10:28N 44°07' E 033°55'3410.5
2014-Aug-19 07:12N 43°56' E 034°40'  
2014-Aug-15 17:29N 42°57' E 038°28'10 5.1
2014-Aug-15 15:33N 42°60' E 038°16'5 5.3
2014-Aug-15 14:33N 43°02' E 038°09'5 5.2
2014-Aug-15 13:33N 43°03' E 038°02'8 7.7
2014-Aug-15 12:33N 43°06' E 037°52'1110.7
2014-Aug-15 11:33N 43°09' E 037°38'1110.9
2014-Aug-15 10:33N 43°13' E 037°24'1111.0
2014-Aug-15 09:33N 43°16' E 037°10'1110.9
2014-Aug-15 08:33N 43°20' E 036°56'1110.9
2014-Aug-15 07:33N 43°23' E 036°41'1110.9
2014-Aug-15 06:33N 43°27' E 036°27'1111.1
2014-Aug-15 05:33N 43°30' E 036°13'1711.2
2014-Aug-15 04:05N 43°36' E 035°51'611.0
2014-Aug-15 03:33N 43°38' E 035°44'1110.7
2014-Aug-15 02:33N 43°41' E 035°29'1510.6
2014-Aug-15 01:07N 43°46' E 035°10'610.8
2014-Aug-15 00:33N 43°48' E 035°02'1110.7
2014-Aug-14 23:33N 43°52' E 034°48'1110.7
2014-Aug-14 22:31N 43°56' E 034°33'220 7.6
2014-Aug-13 17:34N 46°21' E 030°39'0 0.0
2014-Aug-13 10:18N 46°21' E 030°39'0 0.0
2014-Aug-13 09:33N 46°21' E 030°39'2 0.5
2014-Aug-13 05:33N 46°19' E 030°41'7 7.3
2014-Aug-13 04:34N 46°17' E 030°51'10 9.5
2014-Aug-13 03:33N 46°12' E 031°03'1010.1
2014-Aug-13 02:33N 46°05' E 031°13'1010.1
2014-Aug-13 01:33N 45°58' E 031°23'1010.0
2014-Aug-13 00:33N 45°51' E 031°33'1010.0
2014-Aug-12 23:33N 45°43' E 031°43'1010.0
2014-Aug-12 22:33N 45°36' E 031°53'1010.0
2014-Aug-12 21:33N 45°28' E 032°01'1010.0
2014-Aug-12 20:33N 45°19' E 032°08'10 9.8
2014-Aug-12 19:33N 45°11' E 032°17'10 9.9
2014-Aug-12 18:33N 45°04' E 032°26'1010.2
2014-Aug-12 17:33N 44°56' E 032°35'1110.0
2014-Aug-12 16:26N 44°47' E 032°44'12910.9
2014-Aug-12 04:33N 43°45' E 035°22'  
Track history (hours):
 
Tides and Currents Weather Stations Pressure Air Temp Water Temp Dewpoint Dewpoint Depression Visibility Wind Speed Wind Dir Waves Ship Positions

Greifswald

Last reported at 2014-Aug-19 10:28 UTC. Time now 2014-Aug-22 02:03 UTC.
Position N 44°07' E 033°55'.

Length 191 m; draft 6.6 m.

Type: Ship. MMSI: 370492000.

Date/timePositionNaut miles runAvg speedWind from/ knotsBaromVisibWave heightAir tempDewpointWater temp
2014-Aug-19 10:28N 44°07' E 033°55'3410.5
2014-Aug-19 07:12N 43°56' E 034°40'  
2014-Aug-15 17:29N 42°57' E 038°28'10 5.1
2014-Aug-15 15:33N 42°60' E 038°16'5 5.3
2014-Aug-15 14:33N 43°02' E 038°09'5 5.2
2014-Aug-15 13:33N 43°03' E 038°02'8 7.7
2014-Aug-15 12:33N 43°06' E 037°52'1110.7
2014-Aug-15 11:33N 43°09' E 037°38'1110.9
2014-Aug-15 10:33N 43°13' E 037°24'1111.0
2014-Aug-15 09:33N 43°16' E 037°10'1110.9
2014-Aug-15 08:33N 43°20' E 036°56'1110.9
2014-Aug-15 07:33N 43°23' E 036°41'1110.9
2014-Aug-15 06:33N 43°27' E 036°27'1111.1
2014-Aug-15 05:33N 43°30' E 036°13'1711.2
2014-Aug-15 04:05N 43°36' E 035°51'611.0
2014-Aug-15 03:33N 43°38' E 035°44'1110.7
2014-Aug-15 02:33N 43°41' E 035°29'1510.6
2014-Aug-15 01:07N 43°46' E 035°10'610.8
2014-Aug-15 00:33N 43°48' E 035°02'1110.7
2014-Aug-14 23:33N 43°52' E 034°48'1110.7
2014-Aug-14 22:31N 43°56' E 034°33'220 7.6
2014-Aug-13 17:34N 46°21' E 030°39'0 0.0
2014-Aug-13 10:18N 46°21' E 030°39'0 0.0
2014-Aug-13 09:33N 46°21' E 030°39'2 0.5
2014-Aug-13 05:33N 46°19' E 030°41'7 7.3
2014-Aug-13 04:34N 46°17' E 030°51'10 9.5
2014-Aug-13 03:33N 46°12' E 031°03'1010.1
2014-Aug-13 02:33N 46°05' E 031°13'1010.1
2014-Aug-13 01:33N 45°58' E 031°23'1010.0
2014-Aug-13 00:33N 45°51' E 031°33'1010.0
2014-Aug-12 23:33N 45°43' E 031°43'1010.0
2014-Aug-12 22:33N 45°36' E 031°53'1010.0
2014-Aug-12 21:33N 45°28' E 032°01'1010.0
2014-Aug-12 20:33N 45°19' E 032°08'10 9.8
2014-Aug-12 19:33N 45°11' E 032°17'10 9.9
2014-Aug-12 18:33N 45°04' E 032°26'1010.2
2014-Aug-12 17:33N 44°56' E 032°35'1110.0
2014-Aug-12 16:26N 44°47' E 032°44'12910.9
2014-Aug-12 04:33N 43°45' E 035°22'  

Dump ship's entire track history